Latest Weather Observations for Cape Flattery

IDQ60801

Issued at 11:32 am EST Tuesday 21 April 2015 (issued every 30 minutes, with the page automatically refreshed every 10 minutes)

About weather observations | Map of weather stations | Latest weather observations for QLD | Other Formats
Station Details ID: 031213 Name: CAPE FLATTERY Lat: -14.97 Lon: 145.31 Height: 18.5 m
Data from the previous 72 hours. | See also: Recent months at Cape Flattery
Date/Time
EST
Temp
°C
App
Temp
°C
Dew
Point
Rel
Hum
%
Delta-T
°C
Wind Press
QNH
hPa
Press
MSL
hPa
Rain
since 9 am
mm
Dir
 
Spd
km/h
Gust
km/h
Spd
kts
Gust
kts
21/11:30am 25.8 25.4 24.0 90 1.2 SSE 33 46 18 25 1013.0 1012.9 1.2
21/11:00am 27.4 26.0 23.0 77 3.0 SSE 35 46 19 25 1013.4 1013.3 0.0
21/10:30am 28.0 26.5 23.4 76 3.2 SSE 37 44 20 24 1013.5 1013.4 0.0
21/10:00am 27.5 25.7 22.9 76 3.1 SSE 37 48 20 26 1013.6 1013.5 0.0
21/09:46am 27.1 25.5 23.3 80 2.6 SE 37 56 20 30 1013.5 1013.4 0.0
21/09:30am 27.3 25.7 24.0 82 2.3 SSE 39 52 21 28 1013.3 1013.2 0.0
21/09:00am 27.5 26.5 23.7 80 2.6 SSE 35 50 19 27 1013.1 1013.0 4.0
21/08:30am 27.7 25.9 22.9 75 3.3 SE 37 52 20 28 1012.8 1012.7 4.0
21/08:00am 27.3 25.8 22.7 76 3.1 SE 35 43 19 23 1012.7 1012.6 4.0
21/07:30am 26.8 25.4 22.2 76 3.1 SE 33 46 18 25 1012.4 1012.3 4.0
21/07:00am 26.6 25.8 23.1 81 2.4 SE 32 43 17 23 1012.1 1012.0 4.0
21/06:30am 26.4 25.4 22.7 80 2.5 SE 32 44 17 24 1011.9 1011.8 4.0
21/06:00am 26.5 25.7 22.3 78 2.8 SE 30 43 16 23 1011.7 1011.6 4.0
21/05:30am 26.5 25.2 22.1 77 3.0 SE 32 44 17 24 1011.2 1011.1 4.0
21/05:00am 26.3 25.4 22.8 81 2.4 SE 32 43 17 23 1010.9 1010.8 4.0
21/04:30am 26.3 25.8 22.8 81 2.4 SE 30 41 16 22 1011.0 1010.9 4.0
21/04:00am 26.4 25.4 22.7 80 2.5 SE 32 44 17 24 1011.0 1010.9 4.0
21/03:30am 26.3 25.2 22.8 81 2.4 SE 33 46 18 25 1010.9 1010.8 4.0
21/03:00am 26.4 24.7 23.1 82 2.2 SE 37 48 20 26 1011.1 1011.0 4.0
21/02:30am 26.3 25.2 23.4 84 2.0 SE 35 48 19 26 1011.2 1011.1 4.0
21/02:00am 26.1 24.6 22.8 82 2.2 SE 35 48 19 26 1011.4 1011.3 4.0
21/01:30am 26.1 24.8 22.4 80 2.5 SE 33 48 18 26 1011.8 1011.7 4.0
21/01:00am 26.3 26.7 23.8 86 1.7 SE 28 37 15 20 1012.3 1012.2 4.0
 
Date/Time
EST
Temp
°C
App
Temp
°C
Dew
Point
Rel
Hum
%
Delta-T
°C
Wind Press
QNH
hPa
Press
MSL
hPa
Rain
since 9 am
mm
Dir
 
Spd
km/h
Gust
km/h
Spd
kts
Gust
kts
20/11:30pm 26.7 25.7 23.6 83 2.1 SE 35 46 19 25 1012.9 1012.8 4.0
20/11:00pm 26.8 25.9 22.8 79 2.7 SE 32 44 17 24 1013.1 1013.0 4.0
20/10:30pm 26.9 26.7 23.4 81 2.4 SE 30 43 16 23 1013.1 1013.0 4.0
20/10:00pm 26.8 26.0 23.1 80 2.5 SE 32 43 17 23 1013.0 1012.9 4.0
20/09:30pm 26.8 26.2 23.3 81 2.4 SE 32 43 17 23 1013.1 1013.0 4.0
20/09:00pm 26.9 26.0 23.2 80 2.5 SE 33 44 18 24 1013.1 1013.0 4.0
20/08:30pm 26.9 25.8 23.4 81 2.4 SE 35 46 19 25 1013.0 1012.9 4.0
20/08:00pm 26.9 26.0 23.2 80 2.5 SE 33 44 18 24 1012.8 1012.7 4.0
20/07:30pm 26.9 25.6 23.2 80 2.5 SE 35 46 19 25 1012.4 1012.3 4.0
20/07:00pm 26.8 26.2 23.3 81 2.4 SE 32 44 17 24 1012.0 1011.9 4.0
20/06:30pm 26.7 26.2 23.6 83 2.1 SE 32 41 17 22 1011.7 1011.6 4.0
20/06:00pm 26.7 27.2 24.0 85 1.9 SE 28 41 15 22 1011.2 1011.1 4.0
20/05:30pm 26.7 26.8 24.0 85 1.9 SE 30 44 16 24 1011.2 1011.1 4.0
20/05:00pm 26.4 26.1 23.9 86 1.7 SE 32 44 17 24 1011.2 1011.1 4.0
20/04:30pm 28.0 27.7 23.8 78 2.9 SE 32 43 17 23 1010.8 1010.7 3.8
20/04:00pm 27.9 28.1 24.1 80 2.6 SE 30 39 16 21 1010.6 1010.5 3.8
20/03:30pm 27.6 27.9 24.2 82 2.4 SSE 30 41 16 22 1010.7 1010.6 3.8
20/03:00pm 28.5 28.0 24.5 79 2.8 SSE 35 50 19 27 1010.7 1010.6 3.8
20/02:30pm 28.4 27.8 24.4 79 2.8 SE 35 44 19 24 1010.8 1010.7 3.6
20/02:00pm 28.1 28.3 24.7 82 2.4 SE 32 44 17 24 1011.1 1011.0 3.6
20/01:30pm 27.6 28.0 25.0 86 1.8 SE 32 43 17 23 1011.5 1011.4 3.6
20/01:00pm 26.8 27.9 25.0 90 1.3 SE 28 39 15 21 1011.8 1011.7 3.6
20/12:30pm 26.7 27.1 24.4 87 1.6 SE 30 43 16 23 1012.1 1012.0 1.6
20/12:00pm 27.7 27.8 24.5 83 2.2 SE 32 43 17 23 1012.4 1012.3 0.8
20/11:30am 27.9 28.4 23.9 79 2.8 SE 28 37 15 20 1012.8 1012.7 0.0
20/11:00am 28.2 27.0 23.3 75 3.4 SE 35 46 19 25 1013.0 1012.9 0.0
20/10:30am 28.8 28.1 24.1 76 3.3 SE 35 48 19 26 1013.1 1013.0 0.0
20/10:00am 28.9 28.4 24.5 77 3.1 SE 35 44 19 24 1013.2 1013.1 0.0
20/09:30am 28.4 27.2 24.0 77 3.0 SE 37 46 20 25 1013.3 1013.2 0.0
20/09:00am 28.1 28.3 24.1 79 2.8 SE 30 41 16 22 1013.3 1013.2 7.4
20/08:30am 27.9 27.3 23.7 78 2.9 SE 33 46 18 25 1013.1 1013.0 7.4
20/08:00am 27.3 27.3 23.7 81 2.5 SE 30 41 16 22 1012.8 1012.7 7.4
20/07:30am 26.3 26.2 23.6 85 1.8 SE 30 39 16 21 1012.9 1012.8 7.4
20/07:00am 26.4 25.8 23.7 85 1.9 SE 33 46 18 25 1012.4 1012.3 7.4
20/06:30am 25.9 24.8 22.8 83 2.1 SE 33 44 18 24 1012.1 1012.0 7.4
20/06:00am 26.1 25.9 24.0 88 1.4 SE 32 43 17 23 1011.8 1011.7 7.4
20/05:30am 26.0 25.6 23.7 87 1.6 SE 32 44 17 24 1011.9 1011.8 7.4
20/05:00am 25.9 25.4 23.9 89 1.4 SE 33 48 18 26 1011.5 1011.4 7.4
20/04:30am 25.5 26.4 23.9 91 1.1 SE 26 35 14 19 1011.8 1011.7 7.2
20/04:18am 25.7 25.0 23.6 88 1.4 SE 33 54 18 29 1012.0 1011.9 5.4
20/04:00am 25.9 26.8 23.9 89 1.4 SE 26 39 14 21 1011.8 1011.7 4.8
20/03:54am 25.8 26.3 24.0 90 1.2 SE 28 46 15 25 1011.8 1011.7 4.8
20/03:30am 25.6 26.1 24.0 91 1.1 SE 28 35 15 19 1011.8 1011.7 4.8
20/03:18am 25.6 24.3 23.1 86 1.7 SE 35 54 19 29 1012.1 1012.0 3.8
20/03:00am 26.2 26.0 24.1 88 1.4 SE 32 43 17 23 1011.9 1011.8 3.2
20/02:30am 26.3 26.0 24.2 88 1.4 SE 33 44 18 24 1012.0 1011.9 3.2
20/02:00am 26.2 25.7 23.9 87 1.6 SE 33 46 18 25 1012.2 1012.1 3.0
20/01:30am 26.2 26.6 24.4 90 1.2 SE 30 46 16 25 1012.4 1012.3 3.0
20/01:00am 25.6 24.9 23.6 89 1.4 SE 33 48 18 26 1012.8 1012.7 3.0
20/12:53am 25.9 26.1 24.1 90 1.2 SE 30 48 16 26 1013.0 1012.9 3.0
20/12:30am 25.3 25.5 23.5 90 1.2 SE 28 41 15 22 1013.4 1013.3 2.6
20/12:02am 25.0 24.1 22.9 88 1.4 SE 32 50 17 27 1013.4 1013.3 2.6
20/12:00am 25.0 23.8 22.7 87 1.5 SE 33 50 18 27 1013.5 1013.4 2.6
 
Date/Time
EST
Temp
°C
App
Temp
°C
Dew
Point
Rel
Hum
%
Delta-T
°C
Wind Press
QNH
hPa
Press
MSL
hPa
Rain
since 9 am
mm
Dir
 
Spd
km/h
Gust
km/h
Spd
kts
Gust
kts
19/11:30pm 26.6 27.6 24.1 86 1.7 SE 26 39 14 21 1013.7 1013.6 1.6
19/11:00pm 26.4 26.6 24.1 87 1.6 SE 30 37 16 20 1013.9 1013.8 1.6
19/10:30pm 26.6 27.2 24.1 86 1.7 SE 28 37 15 20 1013.7 1013.6 1.6
19/10:00pm 26.4 26.6 24.1 87 1.6 SE 30 41 16 22 1013.9 1013.8 1.6
19/09:45pm 26.3 26.6 24.2 88 1.4 SE 30 48 16 26 1013.9 1013.8 1.6
19/09:30pm 26.5 26.8 24.3 88 1.5 SE 30 41 16 22 1013.8 1013.7 1.6
19/09:11pm 26.2 26.4 24.1 88 1.4 SE 30 48 16 26 1013.5 1013.4 1.4
19/09:00pm 27.1 26.9 24.0 83 2.1 SE 32 41 17 22 1013.3 1013.2 1.0
19/08:30pm 26.8 27.0 24.1 85 1.9 SE 30 41 16 22 1013.0 1012.9 1.0
19/08:00pm 26.9 27.0 24.0 84 2.0 SE 30 41 16 22 1012.7 1012.6 1.0
19/07:30pm 26.6 26.4 24.1 86 1.7 SE 32 41 17 22 1012.3 1012.2 1.0
19/07:00pm 26.7 26.4 23.8 84 2.0 SE 32 43 17 23 1012.1 1012.0 1.0
19/06:30pm 26.6 27.5 23.9 85 1.9 SE 26 37 14 20 1011.8 1011.7 1.0
19/06:00pm 26.9 26.9 23.8 83 2.1 SE 30 39 16 21 1011.7 1011.6 1.0
19/05:30pm 27.5 27.6 23.9 81 2.5 SSE 30 41 16 22 1011.6 1011.5 1.0
19/05:00pm 27.6 27.5 23.6 79 2.7 SE 30 39 16 21 1011.8 1011.7 1.0
19/04:30pm 28.0 27.8 23.4 76 3.2 SE 30 39 16 21 1011.7 1011.6 1.0
19/04:00pm 28.1 27.4 23.2 74 3.4 SE 32 44 17 24 1011.8 1011.7 1.0
19/03:30pm 28.1 26.8 23.2 74 3.4 SE 35 48 19 26 1011.7 1011.6 1.0
19/03:00pm 28.5 28.3 24.1 77 3.0 SE 32 50 17 27 1011.8 1011.7 1.0
19/02:30pm 28.7 28.1 24.3 77 3.1 SE 35 48 19 26 1011.7 1011.6 1.0
19/02:15pm 28.0 28.1 24.6 82 2.4 SSE 32 50 17 27 1011.6 1011.5 1.0
19/02:00pm 29.2 29.1 24.5 76 3.3 SSE 33 46 18 25 1011.8 1011.7 1.0
19/01:30pm 28.4 28.2 24.4 79 2.8 SE 33 46 18 25 1012.2 1012.1 1.0
19/01:05pm 28.8 28.3 23.9 75 3.4 SE 33 52 18 28 1012.5 1012.4 1.0
19/01:00pm 28.8 28.1 24.1 76 3.3 SE 35 46 19 25 1012.6 1012.5 1.0
19/12:30pm 27.7 27.6 24.5 83 2.2 SE 33 50 18 27 1012.9 1012.8 1.0
19/12:00pm 26.1 25.9 24.0 88 1.4 SE 32 44 17 24 1013.3 1013.2 1.0
19/11:50am 26.5 26.4 24.5 89 1.4 SE 33 52 18 28 1013.5 1013.4 1.0
19/11:30am 26.3 24.9 24.2 88 1.4 SE 39 56 21 30 1013.8 1013.7 0.8
19/11:04am 25.4 23.9 22.1 82 2.2 ESE 33 52 18 28 1014.4 1014.3 0.6
19/11:00am 26.9 25.1 22.3 76 3.1 SE 35 52 19 28 1014.6 1014.5 0.0
19/10:30am 28.5 28.7 25.1 82 2.4 SE 33 46 18 25 1014.8 1014.7 0.0
19/10:00am 28.5 28.3 24.3 78 2.9 SE 33 48 18 26 1015.0 1014.9 0.0
19/09:30am 28.1 28.3 24.1 79 2.8 SE 30 41 16 22 1014.8 1014.7 0.0
19/09:00am 28.0 28.3 24.2 80 2.6 SE 30 43 16 23 1014.5 1014.4 45.4
19/08:30am 27.5 27.9 23.7 80 2.6 SE 28 35 15 19 1014.0 1013.9 45.4
19/08:00am 27.3 28.3 24.2 83 2.1 SE 26 39 14 21 1013.5 1013.4 45.4
19/07:30am 26.7 28.1 24.2 86 1.7 SE 24 35 13 19 1013.3 1013.2 45.4
19/07:00am 26.4 27.4 24.1 87 1.6 SE 26 33 14 18 1012.8 1012.7 45.4
19/06:30am 26.2 27.5 24.1 88 1.4 SE 24 33 13 18 1012.6 1012.5 45.4
19/06:00am 26.0 28.0 24.6 92 1.0 SE 22 30 12 16 1012.3 1012.2 45.4
19/05:30am 25.3 28.5 24.3 94 0.7 ESE 15 19 8 10 1012.0 1011.9 45.4
19/05:00am 24.7 27.8 23.5 93 0.8 ESE 13 17 7 9 1011.8 1011.7 45.4
19/04:30am 24.3 25.7 22.9 92 0.9 E 20 32 11 17 1011.8 1011.7 45.2
19/04:00am 25.0 27.5 23.8 93 0.8 E 17 28 9 15 1011.8 1011.7 44.4
19/03:30am 24.4 24.6 22.8 91 1.1 E 26 39 14 21 1011.8 1011.7 38.2
19/03:00am 26.5 27.3 23.8 85 1.9 SE 26 43 14 23 1012.1 1012.0 33.0
19/02:30am 26.5 27.4 24.0 86 1.7 SE 26 35 14 19 1012.2 1012.1 33.0
19/02:00am 26.3 27.6 24.0 87 1.6 SE 24 35 13 19 1012.5 1012.4 33.0
19/01:30am 26.4 27.9 23.7 85 1.9 SE 22 35 12 19 1013.1 1013.0 33.0
19/01:00am 26.0 28.4 23.7 87 1.6 ESE 17 26 9 14 1013.3 1013.2 33.0
19/12:30am 25.8 28.5 23.5 87 1.6 ESE 15 20 8 11 1013.5 1013.4 33.0
19/12:00am 26.0 27.1 23.7 87 1.6 SE 24 32 13 17 1013.8 1013.7 33.0
 
Date/Time
EST
Temp
°C
App
Temp
°C
Dew
Point
Rel
Hum
%
Delta-T
°C
Wind Press
QNH
hPa
Press
MSL
hPa
Rain
since 9 am
mm
Dir
 
Spd
km/h
Gust
km/h
Spd
kts
Gust
kts
18/11:30pm 25.7 28.5 23.7 89 1.4 ESE 15 20 8 11 1013.8 1013.7 33.0
18/11:00pm 25.5 27.5 23.6 89 1.3 SE 19 24 10 13 1013.8 1013.7 33.0
18/10:30pm 25.4 27.7 23.5 89 1.3 SE 17 24 9 13 1013.9 1013.8 33.0
18/10:00pm 25.4 27.3 23.5 89 1.3 SE 19 28 10 15 1014.0 1013.9 33.0
18/09:30pm 25.2 27.2 23.6 91 1.1 SE 19 22 10 12 1013.9 1013.8 33.0
18/09:00pm 25.1 27.3 23.9 93 0.8 ESE 19 26 10 14 1013.9 1013.8 33.0
18/08:30pm 24.9 27.8 23.9 94 0.7 SE 15 20 8 11 1013.5 1013.4 33.0
18/08:00pm 24.6 27.7 23.6 94 0.7 SE 13 17 7 9 1013.4 1013.3 33.0
18/07:30pm 23.9 24.1 22.7 93 0.8 E 26 43 14 23 1013.4 1013.3 31.8
18/07:23pm 24.0 23.8 22.8 93 0.8 E 28 46 15 25 1013.7 1013.6 27.2
18/07:00pm 24.2 25.5 22.6 91 1.1 ENE 20 30 11 16 1013.0 1012.9 12.0
18/06:30pm 25.8 27.2 24.2 91 1.1 SE 24 33 13 18 1012.7 1012.6 10.4
18/06:00pm 25.9 27.7 24.3 91 1.1 SE 22 30 12 16 1012.3 1012.2 10.2
18/05:30pm 25.3 28.0 23.5 90 1.2 ESE 15 20 8 11 1011.8 1011.7 10.2
18/05:00pm 24.7 27.6 23.1 91 1.1 E 13 22 7 12 1011.2 1011.1 10.2
18/04:30pm 24.2 23.9 22.6 91 1.1 E 28 41 15 22 1011.6 1011.5 9.2
18/04:00pm 25.5 26.9 22.8 85 1.8 E 20 37 11 20 1011.3 1011.2 1.6
18/03:30pm 26.8 27.7 23.3 81 2.4 SE 24 37 13 20 1010.8 1010.7 1.6
18/03:00pm 27.2 27.7 23.9 82 2.3 SE 28 39 15 21 1010.9 1010.8 1.6
18/02:30pm 27.6 28.7 24.4 83 2.2 SE 26 33 14 18 1010.9 1010.8 1.4
18/02:00pm 27.5 29.3 24.3 83 2.2 SE 22 28 12 15 1011.2 1011.1 1.4
18/01:30pm 27.3 28.3 24.2 83 2.1 SE 26 35 14 19 1012.0 1011.9 1.4
18/01:00pm 28.3 30.4 25.3 84 2.1 SE 24 32 13 17 1012.0 1011.9 1.4
18/12:30pm 27.0 28.5 25.0 89 1.4 SE 26 33 14 18 1012.3 1012.2 1.4
18/12:00pm 28.1 28.7 24.1 79 2.8 ESE 28 41 15 22 1012.8 1012.7 0.6

Other Formats:

Comma delimited format used in spreadsheet applications
http://www.bom.gov.au/fwo/IDQ60801/IDQ60801.94188.axf

JavaScript Object Notation format (JSON) in row-major order
http://www.bom.gov.au/fwo/IDQ60801/IDQ60801.94188.json